createdAt,value
2018-10-18T00:00:15.690Z,64.93
2018-10-18T00:02:44.063Z,63.27
2018-10-18T00:05:12.453Z,60.83
2018-10-18T00:07:40.867Z,59.53
2018-10-18T00:10:09.584Z,66.80
2018-10-18T00:12:38.187Z,56.40
2018-10-18T00:15:07.393Z,62.83
2018-10-18T00:17:41.257Z,58.03
2018-10-18T00:20:09.733Z,67.40
2018-10-18T00:22:38.079Z,53.13
2018-10-18T00:25:06.646Z,54.93
2018-10-18T00:27:35.042Z,51.93
2018-10-18T00:30:03.479Z,50.70
2018-10-18T00:32:31.869Z,41.93
2018-10-18T00:35:00.241Z,51.93
2018-10-18T00:37:28.648Z,51.97
2018-10-18T00:39:57.032Z,48.47
2018-10-18T00:42:25.440Z,54.37
2018-10-18T00:44:53.810Z,51.80
2018-10-18T00:47:22.216Z,56.17
2018-10-18T00:49:50.714Z,45.87
2018-10-18T00:52:19.158Z,55.23
2018-10-18T00:54:47.544Z,51.97
2018-10-18T00:57:15.946Z,55.60
2018-10-18T00:59:44.319Z,49.53
2018-10-18T01:02:12.766Z,50.90
2018-10-18T01:04:41.134Z,50.13
2018-10-18T01:07:09.560Z,46.20
2018-10-18T01:09:37.940Z,47.47
2018-10-18T01:12:06.434Z,45.17
2018-10-18T01:14:34.735Z,52.23
2018-10-18T01:17:04.150Z,50.03
2018-10-18T01:19:34.446Z,63.73
2018-10-18T01:22:03.775Z,51.37
2018-10-18T01:24:32.155Z,50.73
2018-10-18T01:27:00.554Z,44.00
2018-10-18T01:29:29.099Z,46.07
2018-10-18T01:31:58.034Z,52.83
2018-10-18T01:34:26.442Z,47.13
2018-10-18T01:36:54.870Z,43.37
2018-10-18T01:39:23.278Z,47.80
2018-10-18T01:41:51.701Z,49.40
2018-10-18T01:44:20.214Z,53.93
2018-10-18T01:46:48.590Z,55.87
2018-10-18T01:49:16.990Z,56.93
2018-10-18T01:51:45.365Z,74.90
2018-10-18T01:54:13.882Z,52.93
2018-10-18T01:56:42.186Z,46.40
2018-10-18T01:59:10.580Z,56.63
2018-10-18T02:01:38.953Z,53.90
2018-10-18T02:04:07.350Z,59.43
2018-10-18T02:06:35.721Z,54.13
2018-10-18T02:09:04.794Z,45.93
2018-10-18T02:11:33.170Z,52.17
2018-10-18T02:14:01.564Z,52.70
2018-10-18T02:16:29.946Z,60.63
2018-10-18T02:18:58.394Z,51.90
2018-10-18T02:21:26.746Z,51.37
2018-10-18T02:23:55.200Z,51.37
2018-10-18T02:26:23.563Z,53.60
2018-10-18T02:28:51.974Z,57.67
2018-10-18T02:31:20.370Z,54.17
2018-10-18T02:33:48.763Z,54.73
2018-10-18T02:36:17.183Z,52.17
2018-10-18T02:38:45.554Z,46.13
2018-10-18T02:41:13.938Z,59.73
2018-10-18T02:43:42.339Z,39.03
2018-10-18T02:46:10.879Z,45.23
2018-10-18T02:48:39.286Z,55.00
2018-10-18T02:51:07.666Z,48.50
2018-10-18T02:53:36.054Z,55.50
2018-10-18T02:56:04.430Z,57.13
2018-10-18T02:58:32.834Z,56.13
2018-10-18T03:01:01.252Z,50.60
2018-10-18T03:03:29.655Z,59.10
2018-10-18T03:05:58.058Z,59.07
2018-10-18T03:08:26.450Z,54.00
2018-10-18T03:10:54.824Z,46.30
2018-10-18T03:13:23.219Z,52.63
2018-10-18T03:15:51.644Z,55.07
2018-10-18T03:18:20.046Z,57.97
2018-10-18T03:20:48.418Z,54.77
2018-10-18T03:23:16.818Z,48.60
2018-10-18T03:25:45.185Z,55.73
2018-10-18T03:28:13.595Z,51.20
2018-10-18T03:30:41.996Z,49.00
2018-10-18T03:33:10.372Z,56.13
2018-10-18T03:35:38.776Z,61.93
2018-10-18T03:38:07.163Z,47.40
2018-10-18T03:40:35.568Z,60.90
2018-10-18T03:43:04.119Z,45.17
2018-10-18T03:45:32.516Z,48.70
2018-10-18T03:48:00.890Z,51.27
2018-10-18T03:50:29.286Z,44.70
2018-10-18T03:52:57.663Z,55.00
2018-10-18T03:55:26.062Z,53.63
2018-10-18T03:57:54.432Z,57.63
2018-10-18T04:00:22.839Z,54.43
2018-10-18T04:02:51.231Z,58.50
2018-10-18T04:05:19.632Z,51.03
2018-10-18T04:07:48.003Z,56.40
2018-10-18T04:10:16.390Z,48.33
2018-10-18T04:12:44.816Z,59.30
2018-10-18T04:15:13.190Z,53.43
2018-10-18T04:17:41.563Z,55.57
2018-10-18T04:20:09.961Z,58.77
2018-10-18T04:22:38.419Z,55.00
2018-10-18T04:25:07.446Z,68.70
2018-10-18T04:27:35.818Z,64.90
2018-10-18T04:30:04.316Z,53.70
2018-10-18T04:32:32.782Z,56.57
2018-10-18T04:35:01.183Z,51.27
2018-10-18T04:37:29.602Z,76.33
2018-10-18T04:39:57.974Z,66.83
2018-10-18T04:42:26.377Z,74.33
2018-10-18T04:44:54.778Z,58.73
2018-10-18T04:47:23.280Z,62.37
2018-10-18T04:49:51.603Z,56.00
2018-10-18T04:52:19.973Z,55.03
2018-10-18T04:54:48.361Z,55.33
2018-10-18T04:57:16.726Z,63.20
2018-10-18T04:59:45.123Z,66.93
2018-10-18T05:02:13.503Z,55.80
2018-10-18T05:04:52.158Z,59.57
2018-10-18T05:07:20.635Z,63.70
2018-10-18T05:09:49.199Z,58.70
2018-10-18T05:12:17.680Z,59.97
2018-10-18T05:14:46.074Z,61.50
2018-10-18T05:17:14.453Z,68.90
2018-10-18T05:19:42.854Z,59.13
2018-10-18T05:22:11.234Z,62.57
2018-10-18T05:24:39.611Z,72.00
2018-10-18T05:27:08.012Z,63.60
2018-10-18T05:29:36.398Z,67.40
2018-10-18T05:32:05.702Z,61.17
2018-10-18T05:34:34.070Z,64.33
2018-10-18T05:37:02.502Z,70.13
2018-10-18T05:39:30.890Z,67.23
2018-10-18T05:41:59.286Z,75.53
2018-10-18T05:44:27.791Z,79.47
2018-10-18T05:46:56.185Z,60.13
2018-10-18T05:49:24.588Z,58.00
2018-10-18T05:51:52.986Z,79.20
2018-10-18T05:54:21.410Z,73.57
2018-10-18T05:56:49.767Z,59.43
2018-10-18T05:59:18.134Z,67.33
2018-10-18T06:01:46.535Z,63.83
2018-10-18T06:04:14.914Z,64.77
2018-10-18T06:06:43.314Z,78.70
2018-10-18T06:09:13.390Z,70.47
2018-10-18T06:11:41.782Z,74.53
2018-10-18T06:14:10.156Z,70.27
2018-10-18T06:16:38.553Z,64.30
2018-10-18T06:19:06.941Z,89.43
2018-10-18T06:21:35.382Z,338.60
2018-10-18T06:24:03.750Z,102.00
2018-10-18T06:26:32.150Z,110.93
2018-10-18T06:29:00.531Z,90.43
2018-10-18T06:31:29.006Z,107.63
2018-10-18T06:33:57.388Z,114.33
2018-10-18T06:36:25.791Z,109.50
2018-10-18T06:38:54.167Z,104.93
2018-10-18T06:41:22.563Z,130.07
2018-10-18T06:43:50.944Z,157.67
2018-10-18T06:46:19.347Z,185.67
2018-10-18T06:48:47.765Z,249.10
2018-10-18T06:51:16.245Z,273.03
2018-10-18T06:53:44.623Z,342.53
2018-10-18T06:56:13.026Z,311.37
2018-10-18T06:58:41.402Z,369.83
2018-10-18T07:01:09.814Z,324.73
2018-10-18T07:03:38.194Z,294.43
2018-10-18T07:06:06.662Z,278.13
2018-10-18T07:08:35.018Z,412.27
2018-10-18T07:11:03.498Z,277.03
2018-10-18T07:13:31.836Z,403.73
2018-10-18T07:16:00.246Z,378.00
2018-10-18T07:18:28.794Z,378.40
2018-10-18T07:20:57.171Z,362.13
2018-10-18T07:23:25.580Z,530.63
2018-10-18T07:25:53.968Z,555.43
2018-10-18T07:28:22.382Z,726.90
2018-10-18T07:30:50.787Z,607.30
2018-10-18T07:33:19.218Z,415.67
2018-10-18T07:35:47.607Z,661.10
2018-10-18T07:38:16.019Z,464.70
2018-10-18T07:40:44.450Z,501.33
2018-10-18T07:43:12.863Z,493.60
2018-10-18T07:45:41.253Z,770.13
2018-10-18T07:48:09.707Z,385.33
2018-10-18T07:50:38.054Z,443.60
2018-10-18T07:53:06.580Z,568.80
2018-10-18T07:55:34.872Z,411.33
2018-10-18T07:58:03.274Z,429.20
2018-10-18T08:00:31.756Z,583.77
2018-10-18T08:03:00.175Z,471.83
2018-10-18T08:05:28.560Z,473.67
2018-10-18T08:07:56.967Z,561.33
2018-10-18T08:10:25.348Z,464.10
2018-10-18T08:12:53.775Z,484.73
2018-10-18T08:15:22.182Z,491.80
2018-10-18T08:17:50.594Z,247.07
2018-10-18T08:20:18.999Z,452.07
2018-10-18T08:22:47.402Z,410.60
2018-10-18T08:25:15.879Z,399.43
2018-10-18T08:27:44.217Z,448.20
2018-10-18T08:30:13.499Z,555.43
2018-10-18T08:32:42.110Z,338.17
2018-10-18T08:35:11.719Z,288.07
2018-10-18T08:37:40.223Z,463.90
2018-10-18T08:40:08.862Z,456.73
2018-10-18T08:42:37.273Z,391.53
2018-10-18T08:45:07.083Z,350.17
2018-10-18T08:47:35.490Z,387.03
2018-10-18T08:50:04.010Z,289.10
2018-10-18T08:52:32.375Z,309.73
2018-10-18T08:55:00.775Z,353.17
2018-10-18T08:57:29.154Z,317.80
2018-10-18T08:59:57.554Z,388.37
2018-10-18T09:02:25.934Z,332.60
2018-10-18T09:04:54.338Z,299.30
2018-10-18T09:07:22.719Z,321.40
2018-10-18T09:09:51.134Z,397.03
2018-10-18T09:12:19.513Z,349.40
2018-10-18T09:14:47.939Z,365.03
2018-10-18T09:17:16.330Z,283.67
2018-10-18T09:19:44.735Z,282.33
2018-10-18T09:22:13.122Z,238.67
2018-10-18T09:24:41.523Z,233.80
2018-10-18T09:27:09.910Z,209.80
2018-10-18T09:29:38.314Z,199.47
2018-10-18T09:32:07.114Z,201.97
2018-10-18T09:34:35.542Z,204.13
2018-10-18T09:37:04.010Z,197.63
2018-10-18T09:39:32.380Z,212.70
2018-10-18T09:42:00.761Z,233.27
2018-10-18T09:44:29.272Z,209.60
2018-10-18T09:46:57.584Z,234.47
2018-10-18T09:49:25.987Z,201.73
2018-10-18T09:51:54.370Z,220.10
2018-10-18T09:54:22.770Z,227.40
2018-10-18T09:56:51.154Z,223.63
2018-10-18T09:59:19.562Z,194.47
2018-10-18T10:01:52.102Z,200.30
2018-10-18T10:04:20.600Z,188.37
2018-10-18T10:06:48.963Z,189.27
2018-10-18T10:09:17.370Z,209.07
2018-10-18T10:11:45.819Z,194.63
2018-10-18T10:14:14.183Z,207.97
2018-10-18T10:16:42.566Z,209.87
2018-10-18T10:19:11.017Z,226.60
2018-10-18T10:21:39.391Z,197.80
2018-10-18T10:24:07.795Z,186.30
2018-10-18T10:26:36.183Z,200.90
2018-10-18T10:29:04.609Z,213.27
2018-10-18T10:31:33.015Z,166.93
2018-10-18T10:34:01.428Z,208.77
2018-10-18T10:36:29.815Z,167.57
2018-10-18T10:38:58.231Z,178.60
2018-10-18T10:41:26.625Z,202.30
2018-10-18T10:43:55.014Z,180.20
2018-10-18T10:46:23.466Z,179.73
2018-10-18T10:48:51.824Z,203.37
2018-10-18T10:51:20.237Z,179.70
2018-10-18T10:53:48.622Z,176.23
2018-10-18T10:56:17.132Z,182.37
2018-10-18T10:58:45.509Z,180.67
2018-10-18T11:01:20.958Z,210.70
2018-10-18T11:03:50.447Z,193.30
2018-10-18T11:06:19.036Z,213.00
2018-10-18T11:08:47.307Z,192.63
2018-10-18T11:11:16.422Z,200.63
2018-10-18T11:13:44.878Z,200.47
2018-10-18T11:16:13.286Z,194.97
2018-10-18T11:18:42.149Z,178.00
2018-10-18T11:21:12.121Z,190.93
2018-10-18T11:23:40.442Z,209.60
2018-10-18T11:26:08.870Z,211.57
2018-10-18T11:28:37.262Z,227.17
2018-10-18T11:31:05.686Z,211.87
2018-10-18T11:33:34.154Z,223.73
2018-10-18T11:36:02.599Z,211.33
2018-10-18T11:38:30.986Z,203.33
2018-10-18T11:40:59.402Z,210.87
2018-10-18T11:43:27.786Z,199.63
2018-10-18T11:45:56.253Z,215.97
2018-10-18T11:48:24.641Z,229.23
2018-10-18T11:50:53.057Z,210.83
2018-10-18T11:53:21.455Z,225.43
2018-10-18T11:55:49.863Z,209.00
2018-10-18T11:58:18.246Z,207.33
2018-10-18T12:00:46.651Z,232.03
2018-10-18T12:03:15.030Z,241.37
2018-10-18T12:05:43.494Z,284.37
2018-10-18T12:08:11.929Z,272.57
2018-10-18T12:10:40.386Z,236.27
2018-10-18T12:13:08.799Z,245.87
2018-10-18T12:15:37.214Z,281.77
2018-10-18T12:18:05.746Z,304.63
2018-10-18T12:20:34.167Z,321.10
2018-10-18T12:23:02.624Z,277.97
2018-10-18T12:25:30.998Z,305.83
2018-10-18T12:27:59.387Z,327.00
2018-10-18T12:30:27.803Z,294.53
2018-10-18T12:32:56.211Z,272.63
2018-10-18T12:35:24.642Z,288.27
2018-10-18T12:37:53.041Z,270.43
2018-10-18T12:40:21.592Z,256.23
2018-10-18T12:42:50.815Z,251.37
2018-10-18T12:45:19.206Z,274.97
2018-10-18T12:47:47.637Z,263.43
2018-10-18T12:50:16.077Z,267.37
2018-10-18T12:52:44.470Z,269.00
2018-10-18T12:55:12.866Z,313.33
2018-10-18T12:57:41.294Z,281.30
2018-10-18T13:00:10.527Z,241.40
2018-10-18T13:02:38.970Z,297.00
2018-10-18T13:05:08.401Z,208.23
2018-10-18T13:07:36.842Z,233.63
2018-10-18T13:10:06.446Z,266.90
2018-10-18T13:12:35.028Z,186.97
2018-10-18T13:15:03.330Z,137.17
2018-10-18T13:17:31.754Z,113.97
2018-10-18T13:20:00.181Z,92.67
2018-10-18T13:22:28.607Z,97.53
2018-10-18T13:24:56.986Z,99.20
2018-10-18T13:27:25.390Z,124.20
2018-10-18T13:29:53.792Z,129.33
2018-10-18T13:32:22.231Z,134.50
2018-10-18T13:34:50.618Z,130.67
2018-10-18T13:37:19.075Z,113.43
2018-10-18T13:39:47.458Z,79.50
2018-10-18T13:42:15.952Z,77.80
2018-10-18T13:44:44.274Z,77.47
2018-10-18T13:47:12.674Z,68.20
2018-10-18T13:49:41.054Z,65.37
2018-10-18T13:52:09.450Z,70.70
2018-10-18T13:54:37.834Z,79.73
2018-10-18T13:57:06.551Z,69.33
2018-10-18T13:59:46.660Z,67.30
2018-10-18T14:02:15.237Z,75.30
2018-10-18T14:04:43.518Z,68.97
2018-10-18T14:07:12.058Z,77.80
2018-10-18T14:09:40.474Z,69.90
2018-10-18T14:12:08.886Z,71.73
2018-10-18T14:14:37.270Z,55.27
2018-10-18T14:17:05.835Z,71.20
2018-10-18T14:19:34.279Z,71.57
2018-10-18T14:22:02.690Z,63.20
2018-10-18T14:24:31.071Z,67.23
2018-10-18T14:26:59.478Z,60.43
2018-10-18T14:29:28.596Z,50.53
2018-10-18T14:31:58.709Z,47.73
2018-10-18T14:34:27.098Z,56.77
2018-10-18T14:36:55.538Z,63.63
2018-10-18T14:39:23.918Z,49.50
2018-10-18T14:41:52.307Z,46.53
2018-10-18T14:44:20.800Z,42.20
2018-10-18T14:46:49.113Z,42.70
2018-10-18T14:49:17.529Z,50.50
2018-10-18T14:51:45.906Z,40.60
2018-10-18T14:54:14.305Z,45.13
2018-10-18T14:56:42.706Z,40.43
2018-10-18T14:59:11.255Z,50.07
2018-10-18T15:01:39.524Z,39.87
2018-10-18T15:04:07.935Z,51.87
2018-10-18T15:06:36.399Z,36.00
2018-10-18T15:09:07.424Z,46.07
2018-10-18T15:11:36.374Z,45.20
2018-10-18T15:14:05.064Z,44.17
2018-10-18T15:16:33.417Z,32.40
2018-10-18T15:19:01.834Z,37.67
2018-10-18T15:21:30.216Z,39.63
2018-10-18T15:23:58.622Z,39.50
2018-10-18T15:26:27.263Z,29.07
2018-10-18T15:28:55.589Z,42.13
2018-10-18T15:31:23.994Z,42.83
2018-10-18T15:33:52.713Z,42.13
2018-10-18T15:36:21.153Z,25.67
2018-10-18T15:38:49.653Z,31.83
2018-10-18T15:41:18.043Z,37.27
2018-10-18T15:43:46.558Z,33.23
2018-10-18T15:46:15.068Z,36.70
2018-10-18T15:48:43.480Z,48.60
2018-10-18T15:51:12.008Z,34.10
2018-10-18T15:53:40.453Z,23.37
2018-10-18T15:56:08.807Z,40.80
2018-10-18T15:58:37.240Z,39.27
2018-10-18T16:01:05.839Z,35.33
2018-10-18T16:03:34.764Z,36.70
2018-10-18T16:06:03.202Z,30.53
2018-10-18T16:08:31.606Z,25.20
2018-10-18T16:11:00.044Z,33.87
2018-10-18T16:13:29.181Z,33.90
2018-10-18T16:15:57.534Z,18.70
2018-10-18T16:18:25.942Z,29.63
2018-10-18T16:20:54.578Z,38.47
2018-10-18T16:23:22.983Z,33.77
2018-10-18T16:25:51.386Z,29.83
2018-10-18T16:28:19.798Z,29.43
2018-10-18T16:30:48.194Z,33.73
2018-10-18T16:33:16.600Z,35.77
2018-10-18T16:35:45.015Z,28.00
2018-10-18T16:38:13.537Z,35.33
2018-10-18T16:40:42.404Z,27.10
2018-10-18T16:43:11.410Z,33.10
2018-10-18T16:45:39.815Z,52.83
2018-10-18T16:48:08.492Z,23.87
2018-10-18T16:50:36.910Z,23.03
2018-10-18T16:53:05.978Z,22.43
2018-10-18T16:55:34.378Z,24.57
2018-10-18T16:58:02.981Z,30.93
2018-10-18T17:00:31.370Z,39.07
2018-10-18T17:02:59.746Z,21.03
2018-10-18T17:05:28.151Z,18.90
2018-10-18T17:07:56.654Z,25.47
2018-10-18T17:10:25.055Z,22.43
2018-10-18T17:12:53.430Z,37.47
2018-10-18T17:15:21.833Z,14.70
2018-10-18T17:17:50.274Z,26.37
2018-10-18T17:20:18.732Z,19.80
2018-10-18T17:22:47.038Z,30.23
2018-10-18T17:25:15.451Z,16.27
2018-10-18T17:27:43.868Z,28.90
2018-10-18T17:30:12.322Z,24.47
2018-10-18T17:32:40.711Z,21.03
2018-10-18T17:35:09.114Z,25.50
2018-10-18T17:37:37.491Z,19.40
2018-10-18T17:40:06.565Z,22.70
2018-10-18T17:42:34.898Z,23.20
2018-10-18T17:45:03.303Z,13.50
2018-10-18T17:47:31.694Z,27.13
2018-10-18T17:50:00.137Z,20.83
2018-10-18T17:52:28.515Z,28.50
2018-10-18T17:54:56.918Z,10.13
2018-10-18T17:57:25.285Z,18.63
2018-10-18T17:59:53.743Z,26.43
2018-10-18T18:02:22.327Z,13.33
2018-10-18T18:04:50.818Z,22.50
2018-10-18T18:07:19.250Z,16.87
2018-10-18T18:09:47.801Z,16.70
2018-10-18T18:12:16.346Z,22.03
2018-10-18T18:14:44.733Z,24.80
2018-10-18T18:17:13.107Z,18.73
2018-10-18T18:19:41.528Z,31.97
2018-10-18T18:22:10.019Z,29.47
2018-10-18T18:24:38.498Z,16.37
2018-10-18T18:27:06.928Z,26.97
2018-10-18T18:29:35.292Z,28.47
2018-10-18T18:32:03.708Z,18.17
2018-10-18T18:34:32.126Z,17.73
2018-10-18T18:37:00.518Z,19.83
2018-10-18T18:39:28.890Z,22.97
2018-10-18T18:41:57.311Z,16.87
2018-10-18T18:44:25.684Z,21.80
2018-10-18T18:46:54.085Z,37.17
2018-10-18T18:49:22.663Z,24.20
2018-10-18T18:51:51.098Z,31.60
2018-10-18T18:54:19.506Z,23.60
2018-10-18T18:56:47.990Z,19.37
2018-10-18T18:59:16.376Z,38.23
2018-10-18T19:01:44.783Z,27.43
2018-10-18T19:04:13.159Z,34.33
2018-10-18T19:06:41.591Z,25.53
2018-10-18T19:09:10.550Z,20.60
2018-10-18T19:11:39.226Z,31.23
2018-10-18T19:14:08.387Z,32.17
2018-10-18T19:16:36.738Z,20.53
2018-10-18T19:19:06.558Z,25.17
2018-10-18T19:21:35.206Z,15.30
2018-10-18T19:24:03.581Z,22.23
2018-10-18T19:26:31.974Z,22.03
2018-10-18T19:29:00.355Z,25.23
2018-10-18T19:31:28.776Z,19.43
2018-10-18T19:33:57.222Z,14.47
2018-10-18T19:36:25.686Z,14.40
2018-10-18T19:38:54.366Z,15.80
2018-10-18T19:41:22.811Z,20.67
2018-10-18T19:43:51.188Z,19.70
2018-10-18T19:46:19.659Z,9.80
2018-10-18T19:48:48.010Z,11.73
2018-10-18T19:51:16.411Z,18.10
2018-10-18T19:53:44.787Z,16.03
2018-10-18T19:56:13.236Z,20.27
2018-10-18T19:58:41.617Z,21.70
2018-10-18T20:01:10.090Z,9.63
2018-10-18T20:03:38.478Z,11.30
2018-10-18T20:06:06.881Z,18.43
2018-10-18T20:08:35.263Z,30.83
2018-10-18T20:11:03.638Z,13.03
2018-10-18T20:13:32.052Z,23.90
2018-10-18T20:16:00.422Z,12.30
2018-10-18T20:18:28.844Z,13.73
2018-10-18T20:20:57.265Z,13.57
2018-10-18T20:23:25.643Z,13.67
2018-10-18T20:25:54.186Z,22.00
2018-10-18T20:28:22.428Z,12.20
2018-10-18T20:30:50.822Z,14.20
2018-10-18T20:33:19.219Z,13.33
2018-10-18T20:35:47.586Z,13.10
2018-10-18T20:38:15.978Z,8.93
2018-10-18T20:40:44.347Z,13.80
2018-10-18T20:43:12.739Z,12.20
2018-10-18T20:45:41.110Z,16.27
2018-10-18T20:48:09.647Z,10.17
2018-10-18T20:50:37.938Z,9.77
2018-10-18T20:53:06.382Z,9.77
2018-10-18T20:55:34.740Z,14.70
2018-10-18T20:58:03.126Z,22.03
2018-10-18T21:00:31.506Z,16.43
2018-10-18T21:02:59.967Z,11.73
2018-10-18T21:05:28.317Z,18.33
2018-10-18T21:07:56.722Z,15.63
2018-10-18T21:10:25.094Z,13.00
2018-10-18T21:12:53.488Z,15.57
2018-10-18T21:15:21.878Z,19.13
2018-10-18T21:17:50.522Z,19.97
2018-10-18T21:20:18.887Z,25.70
2018-10-18T21:22:47.283Z,11.50
2018-10-18T21:25:15.659Z,12.10
2018-10-18T21:27:44.123Z,14.30
2018-10-18T21:30:12.452Z,9.10
2018-10-18T21:32:40.867Z,10.90
2018-10-18T21:35:09.317Z,14.30
2018-10-18T21:37:37.657Z,9.97
2018-10-18T21:40:06.037Z,19.27
2018-10-18T21:42:34.433Z,15.67
2018-10-18T21:45:03.811Z,15.77
2018-10-18T21:47:32.310Z,17.00
2018-10-18T21:50:00.688Z,20.70
2018-10-18T21:52:29.082Z,13.20
2018-10-18T21:54:57.463Z,23.03
2018-10-18T21:57:25.862Z,22.03
2018-10-18T21:59:54.253Z,13.17
2018-10-18T22:02:22.622Z,9.20
2018-10-18T22:04:51.014Z,26.27
2018-10-18T22:07:19.418Z,12.47
2018-10-18T22:09:47.810Z,6.43
2018-10-18T22:12:16.175Z,9.60
2018-10-18T22:14:44.565Z,21.87
2018-10-18T22:17:12.994Z,10.30
2018-10-18T22:19:41.356Z,27.20
2018-10-18T22:22:09.727Z,12.50
2018-10-18T22:24:38.124Z,9.33
2018-10-18T22:27:06.514Z,14.90
2018-10-18T22:29:34.919Z,9.57
2018-10-18T22:32:03.314Z,10.93
2018-10-18T22:34:31.723Z,22.97
2018-10-18T22:37:00.126Z,11.77
2018-10-18T22:39:28.525Z,10.40
2018-10-18T22:41:56.889Z,20.53
2018-10-18T22:44:25.285Z,16.43
2018-10-18T22:46:53.653Z,9.33
2018-10-18T22:49:22.050Z,9.63
2018-10-18T22:51:50.423Z,17.40
2018-10-18T22:54:19.066Z,19.03
2018-10-18T22:56:47.462Z,12.70
2018-10-18T22:59:15.926Z,12.43
2018-10-18T23:01:44.270Z,11.73
2018-10-18T23:04:12.675Z,15.13
2018-10-18T23:06:41.104Z,12.87
2018-10-18T23:09:11.078Z,17.77
2018-10-18T23:11:39.455Z,23.17
2018-10-18T23:14:08.718Z,29.07
2018-10-18T23:16:37.682Z,6.93
2018-10-18T23:19:06.295Z,21.77
2018-10-18T23:21:34.702Z,7.40
2018-10-18T23:24:03.094Z,17.10
2018-10-18T23:26:31.610Z,11.43
2018-10-18T23:29:00.135Z,11.33
2018-10-18T23:31:28.543Z,12.43
2018-10-18T23:33:56.947Z,10.17
2018-10-18T23:36:25.338Z,16.90
2018-10-18T23:38:53.748Z,19.40
2018-10-18T23:41:22.148Z,12.60
2018-10-18T23:43:50.566Z,16.77
2018-10-18T23:46:18.931Z,8.23
2018-10-18T23:48:47.319Z,18.57
2018-10-18T23:51:15.829Z,14.53
2018-10-18T23:53:44.101Z,13.67
2018-10-18T23:56:12.501Z,15.37
2018-10-18T23:58:40.870Z,12.03
